ADDS METAR Data INFO
IDs: Format: Raw Decoded Include TAF

Data at: 0716 UTC 24 Nov 2017

METAR for:KFFO (Wright-Patterson AFB, OH, US)
Text:KFFO 240656Z AUTO 00000KT 10SM CLR M03/M05 A3000 RMK AO2 SLP170 T10271052
Temperature: -2.7°C ( 27°F)
Dewpoint: -5.2°C ( 23°F) [RH = 83%]
Pressure (altimeter):30.00 inches Hg (1016.0 mb) [Sea level pressure: 1017.0 mb]
Winds:calm
Visibility:10 or more sm (16+ km)
Ceiling:at least 12,000 feet AGL
Clouds:sky clear below 12,000 feet AGL
QC Flag:automated observation with no human augmentation